KLNC

Lancaster Regional Airport

Lancaster, Texas, USA
METAR KLNC 211255Z AUTO 34016G25KT 3SM -SN SCT009 BKN025 OVC070 02/01 A3025 RMK AO2 P0008 T00150006
Observed Flight Rules
Feb-21 @ 12:55 UTC (12 minutes ago) Marginal Visual Flight Rules
Wind Visibility Clouds Conditions
340° at 16 knots
 Gusting to 25 knots
3 miles
  • Scattered at 900' AGL
  • Broken at 2,500' AGL
  • Overcast at 7,000' AGL
  • Light Snow
Temperatures Readings Precipitation
Current 2°C / 36°F
Dewpoint 1°C / 34°F
Humidity 93%
Altimeter 30.25" Hg
Pressure 1024 hPa
Elevation 153
Current Rain 0.08
METAR KLNC 211255Z AUTO 34016G25KT 3SM -SN SCT009 BKN025 OVC070 02/01 A3025 RMK AO2 P0008 T00150006
Observed Flight Rules
Feb-21 @ 12:55 UTC
(12 minutes ago)
MVFR
Wind Visibility
340° at 16 knots
 Gusting to 25 knots
3 miles
Clouds
  • Scattered at 900' AGL
  • Broken at 2,500' AGL
  • Overcast at 7,000' AGL
Conditions
  • Light Snow
Temperature Dewpoint
2°C / 36°F 1°C / 34°F
Humidity Altimeter Pressure
93% 30.25" Hg 1024 hPa
Current Rain
0.08